sensor_id;sensor_type;location;lat;lon;timestamp;temperature;humidity
21169;DHT22;10742;51.816;8.662;2023-11-21T00:02:40;11.70;99.90
21169;DHT22;10742;51.816;8.662;2023-11-21T00:06:01;11.70;99.90
21169;DHT22;10742;51.816;8.662;2023-11-21T00:09:23;11.70;99.90
21169;DHT22;10742;51.816;8.662;2023-11-21T00:12:44;11.70;99.90
21169;DHT22;10742;51.816;8.662;2023-11-21T00:16:05;11.70;99.90
21169;DHT22;10742;51.816;8.662;2023-11-21T00:19:27;11.70;99.90
21169;DHT22;10742;51.816;8.662;2023-11-21T00:22:48;11.70;99.90
21169;DHT22;10742;51.816;8.662;2023-11-21T00:26:09;11.70;99.90
21169;DHT22;10742;51.816;8.662;2023-11-21T00:29:31;11.70;99.90
21169;DHT22;10742;51.816;8.662;2023-11-21T00:32:52;11.80;99.90
21169;DHT22;10742;51.816;8.662;2023-11-21T00:36:13;11.70;99.90
21169;DHT22;10742;51.816;8.662;2023-11-21T00:39:34;11.80;99.90
21169;DHT22;10742;51.816;8.662;2023-11-21T00:42:56;11.80;99.90
21169;DHT22;10742;51.816;8.662;2023-11-21T00:46:18;11.80;99.90
21169;DHT22;10742;51.816;8.662;2023-11-21T00:49:39;11.90;99.90
21169;DHT22;10742;51.816;8.662;2023-11-21T00:53:01;11.90;99.90
21169;DHT22;10742;51.816;8.662;2023-11-21T00:56:23;11.90;99.90
21169;DHT22;10742;51.816;8.662;2023-11-21T00:59:44;11.90;99.90
21169;DHT22;10742;51.816;8.662;2023-11-21T01:03:05;12.00;99.90
21169;DHT22;10742;51.816;8.662;2023-11-21T01:06:29;12.00;99.90
21169;DHT22;10742;51.816;8.662;2023-11-21T01:09:50;12.00;99.90
21169;DHT22;10742;51.816;8.662;2023-11-21T01:13:12;12.00;99.90
21169;DHT22;10742;51.816;8.662;2023-11-21T01:16:34;12.10;99.90
21169;DHT22;10742;51.816;8.662;2023-11-21T01:19:57;12.10;99.90
21169;DHT22;10742;51.816;8.662;2023-11-21T01:23:19;12.10;99.90
21169;DHT22;10742;51.816;8.662;2023-11-21T01:26:40;12.10;99.90
21169;DHT22;10742;51.816;8.662;2023-11-21T01:30:02;12.20;99.90
21169;DHT22;10742;51.816;8.662;2023-11-21T01:33:24;12.10;99.90
21169;DHT22;10742;51.816;8.662;2023-11-21T01:36:46;12.10;99.90
21169;DHT22;10742;51.816;8.662;2023-11-21T01:40:08;12.20;99.90
21169;DHT22;10742;51.816;8.662;2023-11-21T01:43:34;12.10;99.90
21169;DHT22;10742;51.816;8.662;2023-11-21T01:46:56;12.20;99.90
21169;DHT22;10742;51.816;8.662;2023-11-21T01:50:18;12.20;99.90
21169;DHT22;10742;51.816;8.662;2023-11-21T01:53:40;12.10;99.90
21169;DHT22;10742;51.816;8.662;2023-11-21T01:57:01;12.10;99.90
21169;DHT22;10742;51.816;8.662;2023-11-21T02:00:24;12.10;99.90
21169;DHT22;10742;51.816;8.662;2023-11-21T02:03:46;12.10;99.90
21169;DHT22;10742;51.816;8.662;2023-11-21T02:07:07;12.00;99.90
21169;DHT22;10742;51.816;8.662;2023-11-21T02:10:48;12.00;99.90
21169;DHT22;10742;51.816;8.662;2023-11-21T02:14:10;11.90;99.90
21169;DHT22;10742;51.816;8.662;2023-11-21T02:17:31;11.90;99.90
21169;DHT22;10742;51.816;8.662;2023-11-21T02:20:53;11.90;99.90
21169;DHT22;10742;51.816;8.662;2023-11-21T02:24:15;11.90;99.90
21169;DHT22;10742;51.816;8.662;2023-11-21T02:27:38;11.80;99.90
21169;DHT22;10742;51.816;8.662;2023-11-21T02:31:00;11.80;99.90
21169;DHT22;10742;51.816;8.662;2023-11-21T02:34:23;11.80;99.90
21169;DHT22;10742;51.816;8.662;2023-11-21T02:37:45;11.70;99.90
21169;DHT22;10742;51.816;8.662;2023-11-21T02:41:07;11.70;99.90
21169;DHT22;10742;51.816;8.662;2023-11-21T02:44:28;11.70;99.90
21169;DHT22;10742;51.816;8.662;2023-11-21T02:47:49;11.70;99.90
21169;DHT22;10742;51.816;8.662;2023-11-21T02:51:10;11.60;99.90
21169;DHT22;10742;51.816;8.662;2023-11-21T02:54:33;11.60;99.90
21169;DHT22;10742;51.816;8.662;2023-11-21T02:57:57;11.50;99.90
21169;DHT22;10742;51.816;8.662;2023-11-21T03:01:18;11.50;99.90
21169;DHT22;10742;51.816;8.662;2023-11-21T03:04:39;11.60;99.90
21169;DHT22;10742;51.816;8.662;2023-11-21T03:08:00;11.50;99.90
21169;DHT22;10742;51.816;8.662;2023-11-21T03:11:21;11.50;99.90
21169;DHT22;10742;51.816;8.662;2023-11-21T03:14:42;11.50;99.90
21169;DHT22;10742;51.816;8.662;2023-11-21T03:18:03;11.50;99.90
21169;DHT22;10742;51.816;8.662;2023-11-21T03:21:26;11.50;99.90
21169;DHT22;10742;51.816;8.662;2023-11-21T03:24:47;11.50;99.90
21169;DHT22;10742;51.816;8.662;2023-11-21T03:28:08;11.50;99.90
21169;DHT22;10742;51.816;8.662;2023-11-21T03:31:29;11.60;99.90
21169;DHT22;10742;51.816;8.662;2023-11-21T03:34:55;11.60;99.90
21169;DHT22;10742;51.816;8.662;2023-11-21T03:38:19;11.60;99.90
21169;DHT22;10742;51.816;8.662;2023-11-21T03:41:41;11.60;99.90
21169;DHT22;10742;51.816;8.662;2023-11-21T03:45:02;11.60;99.90
21169;DHT22;10742;51.816;8.662;2023-11-21T03:48:24;11.60;99.90
21169;DHT22;10742;51.816;8.662;2023-11-21T03:51:45;11.70;99.90
21169;DHT22;10742;51.816;8.662;2023-11-21T03:55:06;11.70;99.90
21169;DHT22;10742;51.816;8.662;2023-11-21T03:58:28;11.70;99.90
21169;DHT22;10742;51.816;8.662;2023-11-21T04:01:49;11.70;99.90
21169;DHT22;10742;51.816;8.662;2023-11-21T04:05:10;11.70;99.90
21169;DHT22;10742;51.816;8.662;2023-11-21T04:08:31;11.70;99.90
21169;DHT22;10742;51.816;8.662;2023-11-21T04:11:55;11.70;99.90
21169;DHT22;10742;51.816;8.662;2023-11-21T04:15:16;11.70;99.90
21169;DHT22;10742;51.816;8.662;2023-11-21T04:18:38;11.70;99.90
21169;DHT22;10742;51.816;8.662;2023-11-21T04:22:00;11.70;99.90
21169;DHT22;10742;51.816;8.662;2023-11-21T04:25:21;11.80;99.90
21169;DHT22;10742;51.816;8.662;2023-11-21T04:28:44;11.80;99.90
21169;DHT22;10742;51.816;8.662;2023-11-21T04:32:06;11.80;99.90
21169;DHT22;10742;51.816;8.662;2023-11-21T04:35:28;11.80;99.90
21169;DHT22;10742;51.816;8.662;2023-11-21T04:38:49;11.80;99.90
21169;DHT22;10742;51.816;8.662;2023-11-21T04:42:10;11.80;99.90
21169;DHT22;10742;51.816;8.662;2023-11-21T04:45:32;11.80;99.90
21169;DHT22;10742;51.816;8.662;2023-11-21T04:48:54;11.80;99.90
21169;DHT22;10742;51.816;8.662;2023-11-21T04:52:15;11.80;99.90
21169;DHT22;10742;51.816;8.662;2023-11-21T04:55:36;11.90;99.90
21169;DHT22;10742;51.816;8.662;2023-11-21T04:58:57;11.90;99.90
21169;DHT22;10742;51.816;8.662;2023-11-21T05:02:19;11.90;99.90
21169;DHT22;10742;51.816;8.662;2023-11-21T05:05:47;11.90;99.90
21169;DHT22;10742;51.816;8.662;2023-11-21T05:09:08;11.90;99.90
21169;DHT22;10742;51.816;8.662;2023-11-21T05:12:32;11.90;99.90
21169;DHT22;10742;51.816;8.662;2023-11-21T05:16:00;12.00;99.90
21169;DHT22;10742;51.816;8.662;2023-11-21T05:19:21;12.00;99.90
21169;DHT22;10742;51.816;8.662;2023-11-21T05:22:42;12.00;99.90
21169;DHT22;10742;51.816;8.662;2023-11-21T05:26:04;12.00;99.90
21169;DHT22;10742;51.816;8.662;2023-11-21T05:29:25;12.00;99.90
21169;DHT22;10742;51.816;8.662;2023-11-21T05:32:47;12.00;99.90
21169;DHT22;10742;51.816;8.662;2023-11-21T05:36:09;12.00;99.90
21169;DHT22;10742;51.816;8.662;2023-11-21T05:39:31;12.10;99.90
21169;DHT22;10742;51.816;8.662;2023-11-21T05:42:52;12.10;99.90
21169;DHT22;10742;51.816;8.662;2023-11-21T05:46:13;12.10;99.90
21169;DHT22;10742;51.816;8.662;2023-11-21T05:49:35;12.10;99.90
21169;DHT22;10742;51.816;8.662;2023-11-21T05:52:56;12.10;99.90
21169;DHT22;10742;51.816;8.662;2023-11-21T05:56:20;12.10;99.90
21169;DHT22;10742;51.816;8.662;2023-11-21T05:59:41;12.10;99.90
21169;DHT22;10742;51.816;8.662;2023-11-21T06:03:02;12.10;99.90
21169;DHT22;10742;51.816;8.662;2023-11-21T06:06:25;12.20;99.90
21169;DHT22;10742;51.816;8.662;2023-11-21T06:09:47;12.20;99.90
21169;DHT22;10742;51.816;8.662;2023-11-21T06:13:11;12.20;99.90
21169;DHT22;10742;51.816;8.662;2023-11-21T06:16:32;12.20;99.90
21169;DHT22;10742;51.816;8.662;2023-11-21T06:19:53;12.20;99.90
21169;DHT22;10742;51.816;8.662;2023-11-21T06:23:15;12.20;99.90
21169;DHT22;10742;51.816;8.662;2023-11-21T06:26:38;12.20;99.90
21169;DHT22;10742;51.816;8.662;2023-11-21T06:30:00;12.20;99.90
21169;DHT22;10742;51.816;8.662;2023-11-21T06:33:21;12.30;99.90
21169;DHT22;10742;51.816;8.662;2023-11-21T06:36:42;12.30;99.90
21169;DHT22;10742;51.816;8.662;2023-11-21T06:40:04;12.30;99.90
21169;DHT22;10742;51.816;8.662;2023-11-21T06:43:26;12.40;99.90
21169;DHT22;10742;51.816;8.662;2023-11-21T06:46:47;12.40;99.90
21169;DHT22;10742;51.816;8.662;2023-11-21T06:50:09;12.40;99.90
21169;DHT22;10742;51.816;8.662;2023-11-21T06:53:31;12.50;99.90
21169;DHT22;10742;51.816;8.662;2023-11-21T06:56:52;12.50;99.90
21169;DHT22;10742;51.816;8.662;2023-11-21T07:00:16;12.50;99.90
21169;DHT22;10742;51.816;8.662;2023-11-21T07:03:39;12.60;99.90
21169;DHT22;10742;51.816;8.662;2023-11-21T07:07:00;12.60;99.90
21169;DHT22;10742;51.816;8.662;2023-11-21T07:10:22;12.60;99.90
21169;DHT22;10742;51.816;8.662;2023-11-21T07:13:43;12.60;99.90
21169;DHT22;10742;51.816;8.662;2023-11-21T07:17:05;12.60;99.90
21169;DHT22;10742;51.816;8.662;2023-11-21T07:20:27;12.70;99.90
21169;DHT22;10742;51.816;8.662;2023-11-21T07:23:49;12.60;99.90
21169;DHT22;10742;51.816;8.662;2023-11-21T07:27:10;12.70;99.90
21169;DHT22;10742;51.816;8.662;2023-11-21T07:30:31;12.70;99.90
21169;DHT22;10742;51.816;8.662;2023-11-21T07:33:53;12.70;99.90
21169;DHT22;10742;51.816;8.662;2023-11-21T07:37:14;12.70;99.90
21169;DHT22;10742;51.816;8.662;2023-11-21T07:40:35;12.70;99.90
21169;DHT22;10742;51.816;8.662;2023-11-21T07:43:57;12.80;99.90
21169;DHT22;10742;51.816;8.662;2023-11-21T07:47:18;12.80;99.90
21169;DHT22;10742;51.816;8.662;2023-11-21T07:50:39;12.80;99.90
21169;DHT22;10742;51.816;8.662;2023-11-21T07:54:00;12.70;99.90
21169;DHT22;10742;51.816;8.662;2023-11-21T07:57:21;12.70;99.90
21169;DHT22;10742;51.816;8.662;2023-11-21T08:00:45;12.70;99.90
21169;DHT22;10742;51.816;8.662;2023-11-21T08:04:07;12.70;99.90
21169;DHT22;10742;51.816;8.662;2023-11-21T08:07:29;12.70;99.90
21169;DHT22;10742;51.816;8.662;2023-11-21T08:10:51;12.70;99.90
21169;DHT22;10742;51.816;8.662;2023-11-21T08:14:19;12.60;99.90
21169;DHT22;10742;51.816;8.662;2023-11-21T08:17:41;12.60;99.90
21169;DHT22;10742;51.816;8.662;2023-11-21T08:21:03;12.60;99.90
21169;DHT22;10742;51.816;8.662;2023-11-21T08:24:25;12.60;99.90
21169;DHT22;10742;51.816;8.662;2023-11-21T08:27:47;12.60;99.90
21169;DHT22;10742;51.816;8.662;2023-11-21T08:31:10;12.60;99.90
21169;DHT22;10742;51.816;8.662;2023-11-21T08:34:33;12.60;99.90
21169;DHT22;10742;51.816;8.662;2023-11-21T08:37:54;12.60;99.90
21169;DHT22;10742;51.816;8.662;2023-11-21T08:41:16;12.60;99.90
21169;DHT22;10742;51.816;8.662;2023-11-21T08:44:38;12.70;99.90
21169;DHT22;10742;51.816;8.662;2023-11-21T08:48:03;12.70;99.90
21169;DHT22;10742;51.816;8.662;2023-11-21T08:51:24;12.70;99.90
21169;DHT22;10742;51.816;8.662;2023-11-21T08:54:46;12.70;99.90
21169;DHT22;10742;51.816;8.662;2023-11-21T08:58:07;12.70;99.90
21169;DHT22;10742;51.816;8.662;2023-11-21T09:01:29;12.70;99.90
21169;DHT22;10742;51.816;8.662;2023-11-21T09:04:52;12.70;99.90
21169;DHT22;10742;51.816;8.662;2023-11-21T09:08:13;12.70;99.90
21169;DHT22;10742;51.816;8.662;2023-11-21T09:11:36;12.70;99.90
21169;DHT22;10742;51.816;8.662;2023-11-21T09:14:57;12.70;99.90
21169;DHT22;10742;51.816;8.662;2023-11-21T09:18:18;12.70;99.90
21169;DHT22;10742;51.816;8.662;2023-11-21T09:21:40;12.70;99.90
21169;DHT22;10742;51.816;8.662;2023-11-21T09:25:01;12.70;99.90
21169;DHT22;10742;51.816;8.662;2023-11-21T09:28:25;12.70;99.90
21169;DHT22;10742;51.816;8.662;2023-11-21T09:31:48;12.70;99.90
21169;DHT22;10742;51.816;8.662;2023-11-21T09:35:11;12.70;99.90
21169;DHT22;10742;51.816;8.662;2023-11-21T09:38:35;12.70;99.90
21169;DHT22;10742;51.816;8.662;2023-11-21T09:45:28;12.80;99.90
21169;DHT22;10742;51.816;8.662;2023-11-21T09:48:51;12.80;99.90
21169;DHT22;10742;51.816;8.662;2023-11-21T09:52:27;12.80;99.90
21169;DHT22;10742;51.816;8.662;2023-11-21T09:55:50;12.80;99.90
21169;DHT22;10742;51.816;8.662;2023-11-21T09:59:15;12.80;99.90
21169;DHT22;10742;51.816;8.662;2023-11-21T10:02:36;12.80;99.90
21169;DHT22;10742;51.816;8.662;2023-11-21T10:06:00;12.80;99.90
21169;DHT22;10742;51.816;8.662;2023-11-21T10:09:24;12.80;99.90
21169;DHT22;10742;51.816;8.662;2023-11-21T10:12:54;12.80;99.90
21169;DHT22;10742;51.816;8.662;2023-11-21T10:16:18;12.90;99.90
21169;DHT22;10742;51.816;8.662;2023-11-21T10:19:42;12.90;99.90
21169;DHT22;10742;51.816;8.662;2023-11-21T10:23:04;12.90;99.90
21169;DHT22;10742;51.816;8.662;2023-11-21T10:26:28;12.90;99.90
21169;DHT22;10742;51.816;8.662;2023-11-21T10:29:54;12.90;99.90
21169;DHT22;10742;51.816;8.662;2023-11-21T10:33:15;12.90;99.90
21169;DHT22;10742;51.816;8.662;2023-11-21T10:36:37;12.90;99.90
21169;DHT22;10742;51.816;8.662;2023-11-21T10:39:59;12.90;99.90
21169;DHT22;10742;51.816;8.662;2023-11-21T10:43:25;13.00;99.90
21169;DHT22;10742;51.816;8.662;2023-11-21T10:46:54;13.00;99.90
21169;DHT22;10742;51.816;8.662;2023-11-21T10:50:18;13.00;99.90
21169;DHT22;10742;51.816;8.662;2023-11-21T10:53:40;13.00;99.90
21169;DHT22;10742;51.816;8.662;2023-11-21T10:57:03;13.10;99.90
21169;DHT22;10742;51.816;8.662;2023-11-21T11:00:26;13.10;99.90
21169;DHT22;10742;51.816;8.662;2023-11-21T11:03:49;13.10;99.90
21169;DHT22;10742;51.816;8.662;2023-11-21T11:07:13;13.10;99.90
21169;DHT22;10742;51.816;8.662;2023-11-21T11:10:37;13.10;99.90
21169;DHT22;10742;51.816;8.662;2023-11-21T11:14:00;13.10;99.90
21169;DHT22;10742;51.816;8.662;2023-11-21T11:17:21;13.10;99.90
21169;DHT22;10742;51.816;8.662;2023-11-21T11:20:43;13.00;99.90
21169;DHT22;10742;51.816;8.662;2023-11-21T11:24:36;13.00;99.90
21169;DHT22;10742;51.816;8.662;2023-11-21T11:28:11;13.00;99.90
21169;DHT22;10742;51.816;8.662;2023-11-21T11:32:01;13.00;99.90
21169;DHT22;10742;51.816;8.662;2023-11-21T11:36:00;12.90;99.90
21169;DHT22;10742;51.816;8.662;2023-11-21T11:39:43;12.80;99.90
21169;DHT22;10742;51.816;8.662;2023-11-21T11:43:08;12.80;99.90
21169;DHT22;10742;51.816;8.662;2023-11-21T11:46:45;12.70;99.90
21169;DHT22;10742;51.816;8.662;2023-11-21T11:50:12;12.70;99.90
21169;DHT22;10742;51.816;8.662;2023-11-21T11:53:42;12.70;99.90
21169;DHT22;10742;51.816;8.662;2023-11-21T11:57:06;12.70;99.90
21169;DHT22;10742;51.816;8.662;2023-11-21T12:07:46;12.50;99.90
21169;DHT22;10742;51.816;8.662;2023-11-21T12:11:07;12.50;99.90
21169;DHT22;10742;51.816;8.662;2023-11-21T12:14:28;12.50;99.90
21169;DHT22;10742;51.816;8.662;2023-11-21T12:17:52;12.40;99.90
21169;DHT22;10742;51.816;8.662;2023-11-21T12:21:13;12.40;99.90
21169;DHT22;10742;51.816;8.662;2023-11-21T12:24:35;12.40;99.90
21169;DHT22;10742;51.816;8.662;2023-11-21T12:27:56;12.40;99.90
21169;DHT22;10742;51.816;8.662;2023-11-21T12:31:18;12.40;99.90
21169;DHT22;10742;51.816;8.662;2023-11-21T12:34:39;12.40;99.90
21169;DHT22;10742;51.816;8.662;2023-11-21T12:38:03;12.30;99.90
21169;DHT22;10742;51.816;8.662;2023-11-21T12:41:24;12.30;99.90
21169;DHT22;10742;51.816;8.662;2023-11-21T12:44:46;12.30;99.90
21169;DHT22;10742;51.816;8.662;2023-11-21T12:48:08;12.30;99.90
21169;DHT22;10742;51.816;8.662;2023-11-21T12:51:32;12.30;99.90
21169;DHT22;10742;51.816;8.662;2023-11-21T12:54:54;12.20;99.90
21169;DHT22;10742;51.816;8.662;2023-11-21T12:58:17;12.20;99.90
21169;DHT22;10742;51.816;8.662;2023-11-21T13:01:44;12.20;99.90
21169;DHT22;10742;51.816;8.662;2023-11-21T13:05:07;12.20;99.90
21169;DHT22;10742;51.816;8.662;2023-11-21T13:08:34;12.10;99.90
21169;DHT22;10742;51.816;8.662;2023-11-21T13:12:02;12.10;99.90
21169;DHT22;10742;51.816;8.662;2023-11-21T13:15:27;12.00;99.90
21169;DHT22;10742;51.816;8.662;2023-11-21T13:18:48;12.00;99.90
21169;DHT22;10742;51.816;8.662;2023-11-21T13:22:10;11.90;99.90
21169;DHT22;10742;51.816;8.662;2023-11-21T13:25:32;11.80;99.90
21169;DHT22;10742;51.816;8.662;2023-11-21T13:28:54;11.80;99.90
21169;DHT22;10742;51.816;8.662;2023-11-21T13:32:17;11.70;99.90
21169;DHT22;10742;51.816;8.662;2023-11-21T13:35:41;11.70;99.90
21169;DHT22;10742;51.816;8.662;2023-11-21T13:39:07;11.70;99.90
21169;DHT22;10742;51.816;8.662;2023-11-21T13:42:36;11.60;99.90
21169;DHT22;10742;51.816;8.662;2023-11-21T13:45:57;11.70;99.90
21169;DHT22;10742;51.816;8.662;2023-11-21T13:49:34;11.70;99.90
21169;DHT22;10742;51.816;8.662;2023-11-21T13:53:02;11.70;99.90
21169;DHT22;10742;51.816;8.662;2023-11-21T13:56:29;11.70;99.90
21169;DHT22;10742;51.816;8.662;2023-11-21T13:59:51;11.60;99.90
21169;DHT22;10742;51.816;8.662;2023-11-21T14:03:13;11.60;99.90
21169;DHT22;10742;51.816;8.662;2023-11-21T14:06:48;11.60;99.90
21169;DHT22;10742;51.816;8.662;2023-11-21T14:10:11;11.60;99.90
21169;DHT22;10742;51.816;8.662;2023-11-21T14:13:35;11.70;99.90
21169;DHT22;10742;51.816;8.662;2023-11-21T14:16:56;11.70;99.90
21169;DHT22;10742;51.816;8.662;2023-11-21T14:20:20;11.70;99.90
21169;DHT22;10742;51.816;8.662;2023-11-21T14:23:43;11.70;99.90
21169;DHT22;10742;51.816;8.662;2023-11-21T14:27:06;11.60;99.90
21169;DHT22;10742;51.816;8.662;2023-11-21T14:30:27;11.60;99.90
21169;DHT22;10742;51.816;8.662;2023-11-21T14:33:51;11.60;99.90
21169;DHT22;10742;51.816;8.662;2023-11-21T14:37:12;11.70;99.90
21169;DHT22;10742;51.816;8.662;2023-11-21T14:40:35;11.60;99.90
21169;DHT22;10742;51.816;8.662;2023-11-21T14:43:57;11.60;99.90
21169;DHT22;10742;51.816;8.662;2023-11-21T14:47:18;11.60;99.90
21169;DHT22;10742;51.816;8.662;2023-11-21T14:50:46;11.60;99.90
21169;DHT22;10742;51.816;8.662;2023-11-21T14:54:31;11.60;99.90
21169;DHT22;10742;51.816;8.662;2023-11-21T14:58:01;11.60;99.90
21169;DHT22;10742;51.816;8.662;2023-11-21T15:01:25;11.60;99.90
21169;DHT22;10742;51.816;8.662;2023-11-21T15:05:06;11.60;99.90
21169;DHT22;10742;51.816;8.662;2023-11-21T15:08:29;11.60;99.90
21169;DHT22;10742;51.816;8.662;2023-11-21T15:11:53;11.50;99.90
21169;DHT22;10742;51.816;8.662;2023-11-21T15:15:19;11.50;99.90
21169;DHT22;10742;51.816;8.662;2023-11-21T15:18:41;11.50;99.90
21169;DHT22;10742;51.816;8.662;2023-11-21T15:22:02;11.50;99.90
21169;DHT22;10742;51.816;8.662;2023-11-21T15:25:24;11.40;99.90
21169;DHT22;10742;51.816;8.662;2023-11-21T15:28:45;11.40;99.90
21169;DHT22;10742;51.816;8.662;2023-11-21T15:32:07;11.40;99.90
21169;DHT22;10742;51.816;8.662;2023-11-21T15:35:29;11.40;99.90
21169;DHT22;10742;51.816;8.662;2023-11-21T15:38:50;11.40;99.90
21169;DHT22;10742;51.816;8.662;2023-11-21T15:42:11;11.50;99.90
21169;DHT22;10742;51.816;8.662;2023-11-21T15:45:32;11.50;99.90
21169;DHT22;10742;51.816;8.662;2023-11-21T15:48:54;11.50;99.90
21169;DHT22;10742;51.816;8.662;2023-11-21T15:52:15;11.50;99.90
21169;DHT22;10742;51.816;8.662;2023-11-21T15:55:36;11.50;99.90
21169;DHT22;10742;51.816;8.662;2023-11-21T15:59:03;11.50;99.90
21169;DHT22;10742;51.816;8.662;2023-11-21T16:02:24;11.50;99.90
21169;DHT22;10742;51.816;8.662;2023-11-21T16:05:46;11.50;99.90
21169;DHT22;10742;51.816;8.662;2023-11-21T16:09:07;11.50;99.90
21169;DHT22;10742;51.816;8.662;2023-11-21T16:12:39;11.40;99.90
21169;DHT22;10742;51.816;8.662;2023-11-21T16:16:01;11.40;99.90
21169;DHT22;10742;51.816;8.662;2023-11-21T16:19:22;11.40;99.90
21169;DHT22;10742;51.816;8.662;2023-11-21T16:22:43;11.30;99.90
21169;DHT22;10742;51.816;8.662;2023-11-21T16:26:06;11.30;99.90
21169;DHT22;10742;51.816;8.662;2023-11-21T16:29:27;11.30;99.90
21169;DHT22;10742;51.816;8.662;2023-11-21T16:32:51;11.20;99.90
21169;DHT22;10742;51.816;8.662;2023-11-21T16:36:12;11.20;99.90
21169;DHT22;10742;51.816;8.662;2023-11-21T16:39:33;11.20;99.90
21169;DHT22;10742;51.816;8.662;2023-11-21T16:42:55;11.10;99.90
21169;DHT22;10742;51.816;8.662;2023-11-21T16:46:17;11.10;99.90
21169;DHT22;10742;51.816;8.662;2023-11-21T16:49:39;11.10;99.90
21169;DHT22;10742;51.816;8.662;2023-11-21T16:53:01;11.10;99.90
21169;DHT22;10742;51.816;8.662;2023-11-21T16:56:24;11.00;99.90
21169;DHT22;10742;51.816;8.662;2023-11-21T16:59:44;11.00;99.90
21169;DHT22;10742;51.816;8.662;2023-11-21T17:03:11;11.00;99.90
21169;DHT22;10742;51.816;8.662;2023-11-21T17:06:33;11.00;99.90
21169;DHT22;10742;51.816;8.662;2023-11-21T17:09:54;10.90;99.90
21169;DHT22;10742;51.816;8.662;2023-11-21T17:13:16;10.90;99.90
21169;DHT22;10742;51.816;8.662;2023-11-21T17:16:37;10.90;99.90
21169;DHT22;10742;51.816;8.662;2023-11-21T17:20:01;10.90;99.90
21169;DHT22;10742;51.816;8.662;2023-11-21T17:23:26;10.90;99.90
21169;DHT22;10742;51.816;8.662;2023-11-21T17:26:50;10.80;99.90
21169;DHT22;10742;51.816;8.662;2023-11-21T17:30:12;10.80;99.90
21169;DHT22;10742;51.816;8.662;2023-11-21T17:33:33;10.80;99.90
21169;DHT22;10742;51.816;8.662;2023-11-21T17:36:55;10.80;99.90
21169;DHT22;10742;51.816;8.662;2023-11-21T17:40:16;10.80;99.90
21169;DHT22;10742;51.816;8.662;2023-11-21T17:43:38;10.80;99.90
21169;DHT22;10742;51.816;8.662;2023-11-21T17:47:05;10.80;99.90
21169;DHT22;10742;51.816;8.662;2023-11-21T17:50:26;10.80;99.90
21169;DHT22;10742;51.816;8.662;2023-11-21T17:53:48;10.80;99.90
21169;DHT22;10742;51.816;8.662;2023-11-21T17:57:09;10.80;99.90
21169;DHT22;10742;51.816;8.662;2023-11-21T18:00:30;10.80;99.90
21169;DHT22;10742;51.816;8.662;2023-11-21T18:03:52;10.80;99.90
21169;DHT22;10742;51.816;8.662;2023-11-21T18:07:14;10.80;99.90
21169;DHT22;10742;51.816;8.662;2023-11-21T18:10:37;10.80;99.90
21169;DHT22;10742;51.816;8.662;2023-11-21T18:13:58;10.80;99.90
21169;DHT22;10742;51.816;8.662;2023-11-21T18:17:19;10.70;99.90
21169;DHT22;10742;51.816;8.662;2023-11-21T18:20:40;10.70;99.90
21169;DHT22;10742;51.816;8.662;2023-11-21T18:24:02;10.70;99.90
21169;DHT22;10742;51.816;8.662;2023-11-21T18:27:23;10.60;99.90
21169;DHT22;10742;51.816;8.662;2023-11-21T18:30:50;10.60;99.90
21169;DHT22;10742;51.816;8.662;2023-11-21T18:34:11;10.60;99.90
21169;DHT22;10742;51.816;8.662;2023-11-21T18:37:32;10.50;99.90
21169;DHT22;10742;51.816;8.662;2023-11-21T18:40:53;10.50;99.90
21169;DHT22;10742;51.816;8.662;2023-11-21T18:44:14;10.50;99.90
21169;DHT22;10742;51.816;8.662;2023-11-21T18:47:36;10.50;99.90
21169;DHT22;10742;51.816;8.662;2023-11-21T18:50:57;10.40;99.90
21169;DHT22;10742;51.816;8.662;2023-11-21T18:54:19;10.40;99.90
21169;DHT22;10742;51.816;8.662;2023-11-21T18:57:41;10.40;99.90
21169;DHT22;10742;51.816;8.662;2023-11-21T19:01:03;10.40;99.90
21169;DHT22;10742;51.816;8.662;2023-11-21T19:04:24;10.30;99.90
21169;DHT22;10742;51.816;8.662;2023-11-21T19:07:45;10.30;99.90
21169;DHT22;10742;51.816;8.662;2023-11-21T19:11:06;10.30;99.90
21169;DHT22;10742;51.816;8.662;2023-11-21T19:14:27;10.30;99.90
21169;DHT22;10742;51.816;8.662;2023-11-21T19:17:52;10.30;99.90
21169;DHT22;10742;51.816;8.662;2023-11-21T19:21:15;10.30;99.90
21169;DHT22;10742;51.816;8.662;2023-11-21T19:24:38;10.40;99.90
21169;DHT22;10742;51.816;8.662;2023-11-21T19:28:00;10.40;99.90
21169;DHT22;10742;51.816;8.662;2023-11-21T19:31:21;10.40;99.90
21169;DHT22;10742;51.816;8.662;2023-11-21T19:34:43;10.40;99.90
21169;DHT22;10742;51.816;8.662;2023-11-21T19:38:08;10.40;99.90
21169;DHT22;10742;51.816;8.662;2023-11-21T19:41:32;10.40;99.90
21169;DHT22;10742;51.816;8.662;2023-11-21T19:44:54;10.40;99.90
21169;DHT22;10742;51.816;8.662;2023-11-21T19:48:15;10.40;99.90
21169;DHT22;10742;51.816;8.662;2023-11-21T19:51:40;10.40;99.90
21169;DHT22;10742;51.816;8.662;2023-11-21T19:55:02;10.40;99.90
21169;DHT22;10742;51.816;8.662;2023-11-21T19:58:24;10.40;99.90
21169;DHT22;10742;51.816;8.662;2023-11-21T20:01:46;10.40;99.90
21169;DHT22;10742;51.816;8.662;2023-11-21T20:05:09;10.40;99.90
21169;DHT22;10742;51.816;8.662;2023-11-21T20:08:31;10.40;99.90
21169;DHT22;10742;51.816;8.662;2023-11-21T20:11:54;10.40;99.90
21169;DHT22;10742;51.816;8.662;2023-11-21T20:15:18;10.40;99.90
21169;DHT22;10742;51.816;8.662;2023-11-21T20:18:40;10.40;99.90
21169;DHT22;10742;51.816;8.662;2023-11-21T20:22:02;10.40;99.90
21169;DHT22;10742;51.816;8.662;2023-11-21T20:25:23;10.30;99.90
21169;DHT22;10742;51.816;8.662;2023-11-21T20:28:47;10.30;99.90
21169;DHT22;10742;51.816;8.662;2023-11-21T20:32:08;10.30;99.90
21169;DHT22;10742;51.816;8.662;2023-11-21T20:35:30;10.30;99.90
21169;DHT22;10742;51.816;8.662;2023-11-21T20:38:54;10.30;99.90
21169;DHT22;10742;51.816;8.662;2023-11-21T20:42:20;10.30;99.90
21169;DHT22;10742;51.816;8.662;2023-11-21T20:45:41;10.30;99.90
21169;DHT22;10742;51.816;8.662;2023-11-21T20:49:03;10.30;99.90
21169;DHT22;10742;51.816;8.662;2023-11-21T20:52:25;10.30;99.90
21169;DHT22;10742;51.816;8.662;2023-11-21T20:55:46;10.30;99.90
21169;DHT22;10742;51.816;8.662;2023-11-21T20:59:09;10.30;99.90
21169;DHT22;10742;51.816;8.662;2023-11-21T21:02:32;10.30;99.90
21169;DHT22;10742;51.816;8.662;2023-11-21T21:05:53;10.30;99.90
21169;DHT22;10742;51.816;8.662;2023-11-21T21:09:14;10.30;99.90
21169;DHT22;10742;51.816;8.662;2023-11-21T21:12:39;10.30;99.90
21169;DHT22;10742;51.816;8.662;2023-11-21T21:16:02;10.30;99.90
21169;DHT22;10742;51.816;8.662;2023-11-21T21:19:23;10.20;99.90
21169;DHT22;10742;51.816;8.662;2023-11-21T21:22:47;10.20;99.90
21169;DHT22;10742;51.816;8.662;2023-11-21T21:26:09;10.20;99.90
21169;DHT22;10742;51.816;8.662;2023-11-21T21:29:32;10.20;99.90
21169;DHT22;10742;51.816;8.662;2023-11-21T21:32:53;10.20;99.90